createdAt,value
2017-03-04T00:00:45.487Z,73.10
2017-03-04T00:01:44.135Z,73.10
2017-03-04T00:02:42.796Z,73.10
2017-03-04T00:03:41.471Z,73.10
2017-03-04T00:04:40.099Z,73.20
2017-03-04T00:05:38.803Z,73.10
2017-03-04T00:06:37.723Z,73.30
2017-03-04T00:07:36.418Z,73.40
2017-03-04T00:08:35.059Z,73.50
2017-03-04T00:09:33.640Z,73.40
2017-03-04T00:10:32.283Z,73.40
2017-03-04T00:11:30.939Z,73.60
2017-03-04T00:12:29.891Z,73.70
2017-03-04T00:13:28.561Z,73.70
2017-03-04T00:14:27.185Z,73.70
2017-03-04T00:15:25.788Z,73.50
2017-03-04T00:16:24.387Z,73.50
2017-03-04T00:17:23.012Z,73.50
2017-03-04T00:18:22.246Z,73.50
2017-03-04T00:19:20.883Z,73.50
2017-03-04T00:20:23.547Z,73.40
2017-03-04T00:21:22.189Z,73.50
2017-03-04T00:22:20.879Z,73.60
2017-03-04T00:23:19.930Z,73.70
2017-03-04T00:24:18.820Z,73.70
2017-03-04T00:25:17.465Z,73.70
2017-03-04T00:26:16.190Z,73.60
2017-03-04T00:27:15.308Z,73.50
2017-03-04T00:28:13.944Z,73.50
2017-03-04T00:29:12.601Z,73.60
2017-03-04T00:30:11.586Z,73.60
2017-03-04T00:31:10.267Z,73.60
2017-03-04T00:32:09.312Z,73.70
2017-03-04T00:33:07.994Z,73.60
2017-03-04T00:34:06.627Z,73.60
2017-03-04T00:35:05.331Z,73.70
2017-03-04T00:36:04.236Z,73.80
2017-03-04T00:37:02.895Z,73.80
2017-03-04T00:38:01.525Z,73.70
2017-03-04T00:39:00.130Z,73.70
2017-03-04T00:39:58.964Z,73.70
2017-03-04T00:40:57.670Z,73.80
2017-03-04T00:41:56.558Z,73.90
2017-03-04T00:42:55.697Z,74.00
2017-03-04T00:43:54.491Z,74.00
2017-03-04T00:44:53.534Z,73.90
2017-03-04T00:45:52.534Z,73.90
2017-03-04T00:46:51.218Z,73.90
2017-03-04T00:47:50.209Z,73.90
2017-03-04T00:48:48.847Z,74.00
2017-03-04T00:49:47.490Z,74.20
2017-03-04T00:50:46.170Z,74.30
2017-03-04T00:51:44.823Z,74.20
2017-03-04T00:52:43.471Z,74.10
2017-03-04T00:53:42.473Z,74.20
2017-03-04T00:54:41.121Z,74.00
2017-03-04T00:55:39.759Z,74.50
2017-03-04T00:56:40.335Z,74.90
2017-03-04T00:57:39.211Z,75.00
2017-03-04T00:58:37.953Z,74.80
2017-03-04T00:59:36.866Z,74.60
2017-03-04T01:00:35.643Z,74.50
2017-03-04T01:01:34.334Z,74.60
2017-03-04T01:02:33.888Z,74.70
2017-03-04T01:03:32.541Z,74.50
2017-03-04T01:04:31.356Z,74.50
2017-03-04T01:05:30.347Z,74.30
2017-03-04T01:06:29.043Z,74.40
2017-03-04T01:07:27.686Z,74.60
2017-03-04T01:08:26.805Z,74.50
2017-03-04T01:09:26.991Z,74.50
2017-03-04T01:10:26.005Z,74.60
2017-03-04T01:11:26.603Z,74.70
2017-03-04T01:12:25.371Z,74.80
2017-03-04T01:13:24.217Z,74.60
2017-03-04T01:14:23.134Z,74.50
2017-03-04T01:15:23.529Z,74.70
2017-03-04T01:16:24.033Z,74.50
2017-03-04T01:17:23.156Z,74.50
2017-03-04T01:18:21.829Z,74.70
2017-03-04T01:19:21.182Z,74.50
2017-03-04T01:20:20.518Z,74.50
2017-03-04T01:21:21.108Z,74.50
2017-03-04T01:22:20.421Z,74.40
2017-03-04T01:23:19.707Z,74.50
2017-03-04T01:24:18.716Z,74.60
2017-03-04T01:25:17.587Z,74.70
2017-03-04T01:26:16.928Z,74.70
2017-03-04T01:27:15.599Z,74.60
2017-03-04T01:28:14.259Z,74.80
2017-03-04T01:29:13.207Z,74.80
2017-03-04T01:30:12.972Z,74.90
2017-03-04T01:31:11.639Z,75.00
2017-03-04T01:32:10.169Z,74.80
2017-03-04T01:33:08.775Z,74.90
2017-03-04T01:34:07.623Z,75.00
2017-03-04T01:35:06.483Z,74.90
2017-03-04T01:36:05.070Z,74.90
2017-03-04T01:37:04.883Z,75.10
2017-03-04T01:38:04.838Z,75.30
2017-03-04T01:39:04.051Z,75.30
2017-03-04T01:40:02.596Z,75.30
2017-03-04T01:41:01.455Z,75.20
2017-03-04T01:42:00.044Z,75.10
2017-03-04T01:42:58.558Z,75.10
2017-03-04T01:43:57.113Z,75.00
2017-03-04T01:44:55.628Z,74.80
2017-03-04T01:45:54.566Z,74.80
2017-03-04T01:46:53.856Z,75.00
2017-03-04T01:47:52.407Z,75.00
2017-03-04T01:48:51.022Z,75.30
2017-03-04T01:49:49.569Z,75.00
2017-03-04T01:50:48.120Z,74.90
2017-03-04T01:51:46.683Z,74.90
2017-03-04T01:52:46.552Z,75.00
2017-03-04T01:53:45.146Z,75.10
2017-03-04T01:54:43.926Z,75.00
2017-03-04T01:55:42.498Z,75.40
2017-03-04T01:56:41.059Z,75.50
2017-03-04T01:57:39.579Z,75.60
2017-03-04T01:58:38.468Z,75.40
2017-03-04T01:59:37.031Z,75.30
2017-03-04T02:00:35.624Z,75.30
2017-03-04T02:01:34.876Z,75.50
2017-03-04T02:02:33.527Z,75.30
2017-03-04T02:03:32.087Z,75.30
2017-03-04T02:04:31.027Z,75.50
2017-03-04T02:05:29.556Z,75.50
2017-03-04T02:06:28.154Z,75.40
2017-03-04T02:07:26.698Z,75.60
2017-03-04T02:08:25.459Z,75.70
2017-03-04T02:09:24.022Z,75.60
2017-03-04T02:10:22.882Z,75.50
2017-03-04T02:11:21.417Z,75.60
2017-03-04T02:12:19.995Z,75.60
2017-03-04T02:13:18.635Z,75.60
2017-03-04T02:14:17.196Z,75.60
2017-03-04T02:15:15.729Z,75.30
2017-03-04T02:16:14.598Z,75.40
2017-03-04T02:17:13.166Z,75.70
2017-03-04T02:18:11.708Z,75.50
2017-03-04T02:19:10.271Z,75.50
2017-03-04T02:20:09.213Z,75.50
2017-03-04T02:21:07.753Z,75.50
2017-03-04T02:22:06.603Z,75.40
2017-03-04T02:23:05.183Z,75.60
2017-03-04T02:24:03.766Z,75.60
2017-03-04T02:25:02.739Z,75.30
2017-03-04T02:26:01.305Z,75.30
2017-03-04T02:26:59.894Z,75.50
2017-03-04T02:27:59.247Z,75.10
2017-03-04T02:28:57.863Z,75.10
2017-03-04T02:29:56.843Z,75.40
2017-03-04T02:30:55.411Z,75.40
2017-03-04T02:31:54.023Z,75.50
2017-03-04T02:32:52.807Z,75.80
2017-03-04T02:33:51.704Z,76.00
2017-03-04T02:34:50.274Z,76.00
2017-03-04T02:35:48.822Z,75.90
2017-03-04T02:36:47.362Z,75.50
2017-03-04T02:37:45.963Z,75.40
2017-03-04T02:38:44.475Z,75.60
2017-03-04T02:39:43.359Z,75.70
2017-03-04T02:40:41.950Z,76.30
2017-03-04T02:41:40.494Z,76.00
2017-03-04T02:42:39.298Z,76.10
2017-03-04T02:43:37.835Z,76.00
2017-03-04T02:44:36.617Z,75.80
2017-03-04T02:45:35.469Z,76.00
2017-03-04T02:46:34.044Z,76.30
2017-03-04T02:47:32.634Z,75.70
2017-03-04T02:48:31.195Z,75.60
2017-03-04T02:49:29.772Z,75.70
2017-03-04T02:50:28.471Z,75.90
2017-03-04T02:51:27.357Z,75.90
2017-03-04T02:52:25.951Z,76.00
2017-03-04T02:53:24.560Z,76.30
2017-03-04T02:54:23.115Z,76.20
2017-03-04T02:55:21.659Z,75.80
2017-03-04T02:56:20.230Z,75.90
2017-03-04T02:57:19.079Z,75.80
2017-03-04T02:58:17.612Z,75.40
2017-03-04T02:59:16.538Z,75.70
2017-03-04T03:00:15.119Z,75.70
2017-03-04T03:01:13.732Z,75.70
2017-03-04T03:02:12.756Z,76.10
2017-03-04T03:03:11.776Z,76.00
2017-03-04T03:04:10.383Z,75.80
2017-03-04T03:05:08.974Z,75.70
2017-03-04T03:06:07.547Z,75.40
2017-03-04T03:07:06.566Z,75.70
2017-03-04T03:08:05.147Z,75.70
2017-03-04T03:09:04.133Z,75.90
2017-03-04T03:10:02.685Z,76.20
2017-03-04T03:11:01.311Z,76.20
2017-03-04T03:11:59.894Z,75.90
2017-03-04T03:12:58.431Z,75.30
2017-03-04T03:13:57.042Z,75.20
2017-03-04T03:14:55.981Z,75.40
2017-03-04T03:15:54.591Z,76.30
2017-03-04T03:16:53.231Z,76.30
2017-03-04T03:17:51.799Z,75.90
2017-03-04T03:18:50.363Z,76.00
2017-03-04T03:19:48.934Z,76.10
2017-03-04T03:20:47.844Z,75.90
2017-03-04T03:21:46.403Z,75.80
2017-03-04T03:22:44.937Z,75.90
2017-03-04T03:23:43.562Z,76.00
2017-03-04T03:24:42.139Z,75.70
2017-03-04T03:25:40.689Z,75.80
2017-03-04T03:26:39.570Z,75.70
2017-03-04T03:27:38.108Z,75.60
2017-03-04T03:28:36.700Z,76.10
2017-03-04T03:29:35.321Z,76.10
2017-03-04T03:30:33.868Z,76.10
2017-03-04T03:31:32.434Z,76.00
2017-03-04T03:32:31.411Z,75.90
2017-03-04T03:33:30.320Z,75.90
2017-03-04T03:34:28.872Z,75.60
2017-03-04T03:35:27.405Z,75.80
2017-03-04T03:36:25.955Z,75.80
2017-03-04T03:37:24.540Z,75.90
2017-03-04T03:38:23.789Z,75.90
2017-03-04T03:39:22.328Z,75.90
2017-03-04T03:40:20.887Z,75.90
2017-03-04T03:41:19.455Z,76.00
2017-03-04T03:42:18.024Z,76.00
2017-03-04T03:43:16.631Z,75.90
2017-03-04T03:44:15.522Z,76.10
2017-03-04T03:45:14.367Z,76.30
2017-03-04T03:46:13.286Z,76.00
2017-03-04T03:47:11.792Z,76.00
2017-03-04T03:48:10.325Z,75.90
2017-03-04T03:49:08.855Z,75.90
2017-03-04T03:50:07.783Z,76.40
2017-03-04T03:51:06.358Z,76.50
2017-03-04T03:52:04.982Z,76.30
2017-03-04T03:53:03.585Z,76.40
2017-03-04T03:54:02.402Z,76.40
2017-03-04T03:55:00.907Z,76.80
2017-03-04T03:55:59.755Z,76.60
2017-03-04T03:56:58.360Z,76.70
2017-03-04T03:57:57.022Z,76.40
2017-03-04T03:58:55.569Z,76.40
2017-03-04T03:59:54.123Z,76.60
2017-03-04T04:00:52.788Z,76.70
2017-03-04T04:01:51.591Z,76.70
2017-03-04T04:02:50.105Z,77.30
2017-03-04T04:03:48.626Z,76.90
2017-03-04T04:04:47.198Z,76.30
2017-03-04T04:05:45.747Z,76.50
2017-03-04T04:06:44.319Z,76.50
2017-03-04T04:07:43.212Z,76.50
2017-03-04T04:08:41.738Z,76.30
2017-03-04T04:09:40.687Z,76.50
2017-03-04T04:10:39.222Z,76.50
2017-03-04T04:11:37.765Z,76.50
2017-03-04T04:12:36.728Z,76.60
2017-03-04T04:13:35.579Z,76.60
2017-03-04T04:14:34.154Z,76.60
2017-03-04T04:15:32.715Z,76.50
2017-03-04T04:16:31.284Z,76.70
2017-03-04T04:17:29.813Z,76.70
2017-03-04T04:18:28.781Z,76.20
2017-03-04T04:19:27.638Z,76.20
2017-03-04T04:20:26.164Z,76.60
2017-03-04T04:21:24.679Z,76.90
2017-03-04T04:22:23.242Z,76.60
2017-03-04T04:23:21.837Z,76.70
2017-03-04T04:24:20.412Z,76.70
2017-03-04T04:25:19.280Z,76.90
2017-03-04T04:26:17.839Z,76.80
2017-03-04T04:27:16.347Z,76.90
2017-03-04T04:28:14.902Z,77.10
2017-03-04T04:29:13.621Z,76.70
2017-03-04T04:30:12.160Z,76.70
2017-03-04T04:31:11.241Z,76.70
2017-03-04T04:32:09.814Z,76.80
2017-03-04T04:33:08.359Z,76.90
2017-03-04T04:34:06.867Z,76.90
2017-03-04T04:35:05.470Z,76.90
2017-03-04T04:36:04.088Z,76.90
2017-03-04T04:37:02.920Z,76.70
2017-03-04T04:38:01.485Z,76.70
2017-03-04T04:39:00.391Z,77.60
2017-03-04T04:39:58.962Z,77.60
2017-03-04T04:40:57.531Z,77.30
2017-03-04T04:41:56.106Z,77.20
2017-03-04T04:42:54.919Z,76.90
2017-03-04T04:43:53.426Z,76.80
2017-03-04T04:44:51.979Z,76.90
2017-03-04T04:45:50.531Z,77.10
2017-03-04T04:46:49.210Z,77.50
2017-03-04T04:47:48.295Z,77.10
2017-03-04T04:48:47.184Z,76.80
2017-03-04T04:49:45.855Z,77.00
2017-03-04T04:50:44.414Z,77.00
2017-03-04T04:51:42.918Z,77.70
2017-03-04T04:52:41.497Z,77.00
2017-03-04T04:53:40.014Z,77.20
2017-03-04T04:54:38.922Z,76.60
2017-03-04T04:55:37.476Z,76.90
2017-03-04T04:56:35.977Z,76.60
2017-03-04T04:57:34.502Z,76.10
2017-03-04T04:58:33.045Z,76.20
2017-03-04T04:59:31.571Z,76.60
2017-03-04T05:00:30.469Z,77.00
2017-03-04T05:01:28.999Z,77.20
2017-03-04T05:02:27.610Z,77.80
2017-03-04T05:03:26.141Z,77.40
2017-03-04T05:04:25.060Z,77.20
2017-03-04T05:05:23.615Z,77.20
2017-03-04T05:06:22.531Z,77.10
2017-03-04T05:07:21.068Z,77.20
2017-03-04T05:08:19.647Z,76.30
2017-03-04T05:09:18.198Z,76.70
2017-03-04T05:10:16.747Z,77.00
2017-03-04T05:11:15.325Z,77.00
2017-03-04T05:12:14.566Z,76.20
2017-03-04T05:13:13.122Z,76.20
2017-03-04T05:14:11.667Z,76.00
2017-03-04T05:15:10.585Z,76.30
2017-03-04T05:16:09.084Z,76.30
2017-03-04T05:17:07.630Z,76.50
2017-03-04T05:18:06.527Z,77.10
2017-03-04T05:19:05.039Z,76.50
2017-03-04T05:20:03.604Z,75.90
2017-03-04T05:21:02.603Z,76.40
2017-03-04T05:22:01.160Z,76.40
2017-03-04T05:23:00.115Z,77.20
2017-03-04T05:23:58.960Z,77.30
2017-03-04T05:24:57.475Z,76.50
2017-03-04T05:25:56.011Z,76.00
2017-03-04T05:26:54.524Z,75.80
2017-03-04T05:27:53.150Z,75.80
2017-03-04T05:28:51.700Z,75.60
2017-03-04T05:29:50.624Z,75.60
2017-03-04T05:30:49.471Z,76.40
2017-03-04T05:31:48.058Z,77.00
2017-03-04T05:32:46.599Z,76.80
2017-03-04T05:33:45.135Z,77.30
2017-03-04T05:34:43.673Z,77.20
2017-03-04T05:35:42.812Z,77.80
2017-03-04T05:36:41.362Z,77.40
2017-03-04T05:37:39.906Z,77.40
2017-03-04T05:38:38.449Z,76.90
2017-03-04T05:39:36.988Z,76.90
2017-03-04T05:40:35.539Z,77.50
2017-03-04T05:41:34.418Z,77.40
2017-03-04T05:42:32.969Z,78.20
2017-03-04T05:43:31.507Z,78.20
2017-03-04T05:44:29.998Z,77.40
2017-03-04T05:45:28.564Z,77.00
2017-03-04T05:46:27.137Z,77.10
2017-03-04T05:47:25.939Z,77.40
2017-03-04T05:48:24.472Z,77.90
2017-03-04T05:49:23.022Z,78.30
2017-03-04T05:50:21.600Z,78.60
2017-03-04T05:51:20.134Z,78.10
2017-03-04T05:52:18.684Z,77.80
2017-03-04T05:53:18.017Z,77.80
2017-03-04T05:54:16.547Z,77.50
2017-03-04T05:55:15.431Z,77.60
2017-03-04T05:56:13.980Z,77.60
2017-03-04T05:57:12.505Z,77.60
2017-03-04T05:58:11.024Z,77.40
2017-03-04T05:59:09.865Z,77.30
2017-03-04T06:00:08.415Z,77.30
2017-03-04T06:01:07.076Z,77.30
2017-03-04T06:02:05.726Z,77.10
2017-03-04T06:03:04.246Z,77.30
2017-03-04T06:04:02.782Z,77.30
2017-03-04T06:05:01.611Z,78.00
2017-03-04T06:06:00.103Z,78.20
2017-03-04T06:06:58.677Z,77.70
2017-03-04T06:07:57.191Z,77.70
2017-03-04T06:08:56.139Z,77.90
2017-03-04T06:09:54.645Z,77.90
2017-03-04T06:10:53.456Z,78.60
2017-03-04T06:11:51.974Z,78.80
2017-03-04T06:12:50.908Z,78.80
2017-03-04T06:13:49.735Z,78.80
2017-03-04T06:14:48.635Z,77.80
2017-03-04T06:15:47.196Z,77.80
2017-03-04T06:16:45.975Z,78.00
2017-03-04T06:17:44.883Z,78.00
2017-03-04T06:18:43.436Z,78.00
2017-03-04T06:19:41.980Z,78.50
2017-03-04T06:20:40.886Z,77.90
2017-03-04T06:21:39.448Z,77.90
2017-03-04T06:22:38.270Z,77.70
2017-03-04T06:23:36.777Z,78.50
2017-03-04T06:24:35.326Z,78.00
2017-03-04T06:25:34.117Z,78.10
2017-03-04T06:26:32.695Z,77.90
2017-03-04T06:27:31.239Z,77.10
2017-03-04T06:28:30.444Z,77.00
2017-03-04T06:29:28.987Z,76.70
2017-03-04T06:30:27.558Z,76.70
2017-03-04T06:31:26.090Z,78.20
2017-03-04T06:32:24.656Z,78.60
2017-03-04T06:33:23.255Z,78.70
2017-03-04T06:34:22.192Z,77.90
2017-03-04T06:35:20.730Z,77.20
2017-03-04T06:36:19.282Z,77.00
2017-03-04T06:37:17.869Z,76.80
2017-03-04T06:38:16.424Z,78.10
2017-03-04T06:39:15.087Z,78.30
2017-03-04T06:40:14.287Z,77.10
2017-03-04T06:41:12.830Z,77.10
2017-03-04T06:42:11.387Z,76.80
2017-03-04T06:43:09.939Z,76.60
2017-03-04T06:44:08.487Z,77.10
2017-03-04T06:45:07.036Z,78.30
2017-03-04T06:46:06.299Z,77.90
2017-03-04T06:47:05.349Z,77.50
2017-03-04T06:48:04.446Z,77.50
2017-03-04T06:49:03.813Z,76.40
2017-03-04T06:50:02.927Z,76.90
2017-03-04T06:51:01.793Z,77.70
2017-03-04T06:52:01.252Z,78.00
2017-03-04T06:53:02.832Z,77.70
2017-03-04T06:54:03.325Z,77.30
2017-03-04T06:55:02.867Z,77.30
2017-03-04T06:56:02.409Z,76.60
2017-03-04T06:57:02.103Z,77.10
2017-03-04T06:58:01.837Z,77.50
2017-03-04T06:59:01.075Z,77.40
2017-03-04T07:00:00.831Z,77.70
2017-03-04T07:01:01.792Z,76.20
2017-03-04T07:02:00.802Z,75.70
2017-03-04T07:02:59.648Z,76.80
2017-03-04T07:03:58.720Z,76.00
2017-03-04T07:04:58.191Z,76.20
2017-03-04T07:05:57.376Z,76.60
2017-03-04T07:06:56.817Z,77.20
2017-03-04T07:07:56.267Z,77.30
2017-03-04T07:08:55.256Z,76.20
2017-03-04T07:09:54.386Z,75.40
2017-03-04T07:10:53.224Z,76.00
2017-03-04T07:11:52.001Z,76.00
2017-03-04T07:12:50.890Z,76.10
2017-03-04T07:13:50.616Z,76.80
2017-03-04T07:14:50.614Z,76.80
2017-03-04T07:15:50.221Z,76.80
2017-03-04T07:16:49.412Z,75.90
2017-03-04T07:17:49.202Z,76.60
2017-03-04T07:18:50.745Z,76.70
2017-03-04T07:19:49.585Z,76.30
2017-03-04T07:20:48.608Z,75.90
2017-03-04T07:21:47.985Z,76.30
2017-03-04T07:22:49.999Z,76.50
2017-03-04T07:23:48.924Z,76.50
2017-03-04T07:24:49.156Z,76.20
2017-03-04T07:25:48.147Z,76.00
2017-03-04T07:26:47.275Z,74.90
2017-03-04T07:27:46.471Z,76.10
2017-03-04T07:28:45.609Z,76.50
2017-03-04T07:29:45.047Z,75.60
2017-03-04T07:30:45.113Z,76.10
2017-03-04T07:31:44.789Z,75.60
2017-03-04T07:32:44.837Z,75.90
2017-03-04T07:33:44.068Z,75.40
2017-03-04T07:34:42.940Z,75.50
2017-03-04T07:35:41.618Z,75.90
2017-03-04T07:36:40.870Z,74.60
2017-03-04T07:37:40.063Z,75.00
2017-03-04T07:38:39.380Z,75.60
2017-03-04T07:39:38.265Z,75.60
2017-03-04T07:40:37.479Z,74.60
2017-03-04T07:41:36.662Z,74.70
2017-03-04T07:42:36.157Z,75.40
2017-03-04T07:43:34.764Z,75.30
2017-03-04T07:44:33.833Z,74.50
2017-03-04T07:45:32.695Z,75.30
2017-03-04T07:46:31.711Z,75.00
2017-03-04T07:47:30.737Z,75.00
2017-03-04T07:48:30.851Z,75.20
2017-03-04T07:49:29.616Z,75.20
2017-03-04T07:50:28.765Z,74.70
2017-03-04T07:51:28.290Z,74.90
2017-03-04T07:52:27.347Z,74.90
2017-03-04T07:53:26.212Z,74.70
2017-03-04T07:54:26.436Z,74.70
2017-03-04T07:55:25.980Z,74.70
2017-03-04T07:56:24.982Z,74.20
2017-03-04T07:57:24.295Z,74.10
2017-03-04T07:58:23.448Z,74.60
2017-03-04T07:59:22.934Z,74.40
2017-03-04T08:00:22.196Z,74.70
2017-03-04T08:01:21.531Z,74.50
2017-03-04T08:02:26.885Z,74.40
2017-03-04T08:03:25.587Z,74.40
2017-03-04T08:04:24.819Z,73.50
2017-03-04T08:05:24.779Z,73.80
2017-03-04T08:06:24.421Z,74.50
2017-03-04T08:07:23.291Z,74.50
2017-03-04T08:08:22.013Z,74.40
2017-03-04T08:09:21.187Z,73.60
2017-03-04T08:10:20.294Z,73.30
2017-03-04T08:11:19.879Z,73.80
2017-03-04T08:12:18.651Z,74.20
2017-03-04T08:13:20.148Z,74.20
2017-03-04T08:14:20.814Z,73.70
2017-03-04T08:15:21.728Z,74.40
2017-03-04T08:16:21.592Z,73.90
2017-03-04T08:17:24.923Z,73.70
2017-03-04T08:18:24.256Z,73.50
2017-03-04T08:19:23.539Z,73.90
2017-03-04T08:20:22.553Z,73.70
2017-03-04T08:21:21.782Z,73.70
2017-03-04T08:22:23.016Z,73.60
2017-03-04T08:23:21.865Z,73.50
2017-03-04T08:24:21.033Z,73.50
2017-03-04T08:25:20.119Z,73.50
2017-03-04T08:26:18.997Z,73.60
2017-03-04T08:27:20.196Z,73.70
2017-03-04T08:28:19.922Z,73.30
2017-03-04T08:29:19.316Z,73.20
2017-03-04T08:30:18.424Z,73.20
2017-03-04T08:31:17.578Z,73.40
2017-03-04T08:32:17.557Z,73.40
2017-03-04T08:33:17.425Z,73.40
2017-03-04T08:34:16.519Z,73.30
2017-03-04T08:35:15.287Z,73.20
2017-03-04T08:36:14.475Z,73.40
2017-03-04T08:37:14.470Z,73.30
2017-03-04T08:38:13.867Z,72.90
2017-03-04T08:39:16.149Z,72.90
2017-03-04T08:40:15.417Z,73.30
2017-03-04T08:41:15.365Z,73.50
2017-03-04T08:42:14.495Z,73.50
2017-03-04T08:43:13.896Z,73.10
2017-03-04T08:44:14.095Z,73.20
2017-03-04T08:45:13.546Z,73.10
2017-03-04T08:46:13.404Z,73.30
2017-03-04T08:47:14.210Z,73.10
2017-03-04T08:48:16.149Z,72.90
2017-03-04T08:49:16.153Z,73.00
2017-03-04T08:50:16.315Z,73.00
2017-03-04T08:51:15.445Z,73.30
2017-03-04T08:52:15.715Z,72.90
2017-03-04T08:53:15.039Z,72.80
2017-03-04T08:54:14.034Z,72.80
2017-03-04T08:55:15.176Z,72.80
2017-03-04T08:56:15.236Z,72.70
2017-03-04T08:57:13.996Z,72.90
2017-03-04T08:58:13.854Z,73.00
2017-03-04T08:59:12.661Z,72.80
2017-03-04T09:00:11.887Z,72.70
2017-03-04T09:01:11.555Z,72.60
2017-03-04T09:02:11.324Z,72.60
2017-03-04T09:03:10.542Z,72.70
2017-03-04T09:04:09.899Z,72.50
2017-03-04T09:05:10.195Z,72.50
2017-03-04T09:06:09.726Z,72.70
2017-03-04T09:07:09.336Z,72.40
2017-03-04T09:08:09.502Z,72.40
2017-03-04T09:09:10.048Z,72.50
2017-03-04T09:10:09.338Z,72.50
2017-03-04T09:11:08.339Z,72.30
2017-03-04T09:12:08.135Z,72.30
2017-03-04T09:13:08.461Z,72.30
2017-03-04T09:14:08.500Z,72.00
2017-03-04T09:15:08.083Z,72.10
2017-03-04T09:16:08.080Z,72.10
2017-03-04T09:17:07.214Z,72.10
2017-03-04T09:18:06.960Z,72.10
2017-03-04T09:19:08.224Z,72.20
2017-03-04T09:20:08.340Z,72.20
2017-03-04T09:21:08.343Z,72.00
2017-03-04T09:22:07.580Z,71.90
2017-03-04T09:23:07.004Z,72.00
2017-03-04T09:24:06.816Z,72.00
2017-03-04T09:25:06.613Z,72.00
2017-03-04T09:26:06.075Z,71.90
2017-03-04T09:27:04.902Z,71.80
2017-03-04T09:28:04.100Z,71.90
2017-03-04T09:29:03.472Z,71.40
2017-03-04T09:30:02.286Z,71.40
2017-03-04T09:31:04.533Z,71.30
2017-03-04T09:32:08.256Z,71.30
2017-03-04T09:33:10.555Z,71.30
2017-03-04T09:34:10.110Z,71.20
2017-03-04T09:35:12.126Z,71.10
2017-03-04T09:36:11.323Z,71.00
2017-03-04T09:37:09.899Z,71.30
2017-03-04T09:38:09.993Z,71.20
2017-03-04T09:39:09.561Z,71.20
2017-03-04T09:40:08.256Z,71.40
2017-03-04T09:41:06.999Z,71.30
2017-03-04T09:42:06.085Z,71.30
2017-03-04T09:43:05.737Z,71.10
2017-03-04T09:44:07.435Z,71.20
2017-03-04T09:45:06.254Z,71.20
2017-03-04T09:46:05.386Z,71.00
2017-03-04T09:47:04.340Z,71.00
2017-03-04T09:48:08.577Z,71.00
2017-03-04T09:49:07.237Z,71.20
2017-03-04T09:50:05.832Z,71.30
2017-03-04T09:51:06.556Z,71.00
2017-03-04T09:52:05.978Z,71.40
2017-03-04T09:53:04.975Z,71.40
2017-03-04T09:54:03.939Z,71.50
2017-03-04T09:55:02.764Z,71.20
2017-03-04T09:56:01.522Z,70.90
2017-03-04T09:57:01.981Z,70.80
2017-03-04T09:58:00.903Z,70.70
2017-03-04T09:58:59.958Z,70.70
2017-03-04T09:59:59.108Z,70.60
2017-03-04T10:00:57.743Z,70.60
2017-03-04T10:01:57.327Z,70.40
2017-03-04T10:02:57.327Z,70.40
2017-03-04T10:03:56.070Z,70.20
2017-03-04T10:04:54.663Z,70.20
2017-03-04T10:05:54.871Z,70.20
2017-03-04T10:06:54.752Z,70.00
2017-03-04T10:07:53.582Z,69.80
2017-03-04T10:08:52.524Z,69.90
2017-03-04T10:09:52.239Z,69.90
2017-03-04T10:10:51.379Z,69.80
2017-03-04T10:11:50.382Z,69.80
2017-03-04T10:12:49.327Z,69.60
2017-03-04T10:13:48.820Z,69.60
2017-03-04T10:14:47.854Z,69.60
2017-03-04T10:15:47.885Z,69.60
2017-03-04T10:16:47.571Z,69.60
2017-03-04T10:17:46.689Z,69.50
2017-03-04T10:18:45.741Z,69.30
2017-03-04T10:19:44.871Z,69.50
2017-03-04T10:20:43.672Z,69.60
2017-03-04T10:21:42.271Z,69.90
2017-03-04T10:22:41.443Z,69.70
2017-03-04T10:23:40.730Z,69.50
2017-03-04T10:24:39.647Z,69.40
2017-03-04T10:25:38.866Z,69.10
2017-03-04T10:26:37.508Z,69.20
2017-03-04T10:27:36.656Z,69.20
2017-03-04T10:28:35.834Z,69.00
2017-03-04T10:29:35.027Z,69.00
2017-03-04T10:30:34.539Z,69.20
2017-03-04T10:31:33.567Z,69.00
2017-03-04T10:32:32.744Z,69.10
2017-03-04T10:33:32.276Z,69.30
2017-03-04T10:34:31.080Z,69.30
2017-03-04T10:35:30.334Z,69.30
2017-03-04T10:36:29.192Z,69.10
2017-03-04T10:37:28.390Z,69.00
2017-03-04T10:38:27.762Z,69.00
2017-03-04T10:39:26.471Z,69.00
2017-03-04T10:40:25.215Z,69.10
2017-03-04T10:41:24.723Z,69.50
2017-03-04T10:42:23.626Z,69.90
2017-03-04T10:43:22.404Z,70.10
2017-03-04T10:44:21.435Z,69.70
2017-03-04T10:45:20.970Z,69.50
2017-03-04T10:46:19.925Z,69.50
2017-03-04T10:47:18.927Z,69.50
2017-03-04T10:48:17.703Z,69.30
2017-03-04T10:49:17.020Z,69.30
2017-03-04T10:50:15.571Z,69.30
2017-03-04T10:51:14.195Z,69.40
2017-03-04T10:52:13.411Z,69.50
2017-03-04T10:53:13.151Z,69.40
2017-03-04T10:54:12.056Z,69.40
2017-03-04T10:55:10.821Z,69.50
2017-03-04T10:56:09.618Z,69.40
2017-03-04T10:57:08.680Z,69.00
2017-03-04T10:58:07.353Z,68.90
2017-03-04T10:59:06.212Z,68.80
2017-03-04T11:00:05.648Z,68.70
2017-03-04T11:01:05.577Z,68.70
2017-03-04T11:02:04.738Z,68.80
2017-03-04T11:03:03.306Z,68.80
2017-03-04T11:04:01.915Z,68.50
2017-03-04T11:05:00.931Z,68.60
2017-03-04T11:05:59.892Z,68.50
2017-03-04T11:06:58.894Z,68.30
2017-03-04T11:07:58.339Z,68.40
2017-03-04T11:08:57.675Z,68.30
2017-03-04T11:09:57.210Z,68.20
2017-03-04T11:10:55.783Z,68.40
2017-03-04T11:11:53.515Z,69.80
2017-03-04T11:12:51.608Z,68.60
2017-03-04T11:13:49.409Z,74.60
2017-03-04T11:14:47.872Z,64.60
2017-03-04T11:15:45.996Z,65.50
2017-03-04T11:16:44.674Z,65.50
2017-03-04T11:17:43.467Z,65.60
2017-03-04T11:18:41.291Z,65.70
2017-03-04T11:19:39.858Z,65.60
2017-03-04T11:20:37.714Z,65.90
2017-03-04T11:21:35.700Z,65.80
2017-03-04T11:22:33.844Z,66.00
2017-03-04T11:23:32.014Z,66.00
2017-03-04T11:24:29.764Z,66.10
2017-03-04T11:25:27.626Z,66.20
2017-03-04T11:26:25.846Z,66.00
2017-03-04T11:27:24.239Z,66.00
2017-03-04T11:28:22.302Z,66.00
2017-03-04T11:29:20.582Z,65.90
2017-03-04T11:30:18.552Z,65.80
2017-03-04T11:31:16.991Z,66.20
2017-03-04T11:32:15.037Z,66.20
2017-03-04T11:33:12.866Z,66.00
2017-03-04T11:34:11.468Z,66.00
2017-03-04T11:35:09.224Z,66.00
2017-03-04T11:36:06.994Z,65.80
2017-03-04T11:37:05.857Z,66.00
2017-03-04T11:38:03.854Z,65.80
2017-03-04T11:39:01.619Z,65.70
2017-03-04T11:39:59.893Z,65.60
2017-03-04T11:40:57.754Z,65.70
2017-03-04T11:41:56.362Z,65.30
2017-03-04T11:42:54.124Z,65.30
2017-03-04T11:43:51.899Z,65.30
2017-03-04T11:44:49.621Z,65.40
2017-03-04T11:45:48.322Z,65.30
2017-03-04T11:46:46.139Z,65.40
2017-03-04T11:47:45.358Z,65.20
2017-03-04T11:48:43.497Z,65.20
2017-03-04T11:49:41.318Z,64.70
2017-03-04T11:50:39.894Z,64.90
2017-03-04T11:51:37.991Z,64.60
2017-03-04T11:52:36.647Z,64.80
2017-03-04T11:53:35.792Z,64.90
2017-03-04T11:54:33.535Z,64.90
2017-03-04T11:55:31.490Z,64.90
2017-03-04T11:56:29.402Z,64.80
2017-03-04T11:57:27.527Z,64.60
2017-03-04T11:58:25.382Z,64.60
2017-03-04T11:59:23.422Z,64.60
2017-03-04T12:00:21.382Z,64.70
2017-03-04T12:01:19.365Z,64.70
2017-03-04T12:02:17.191Z,64.70
2017-03-04T12:03:15.592Z,64.80
2017-03-04T12:04:13.334Z,65.00
2017-03-04T12:05:12.403Z,65.10
2017-03-04T12:06:10.324Z,65.00
2017-03-04T12:07:08.930Z,65.10
2017-03-04T12:08:06.933Z,65.10
2017-03-04T12:09:05.591Z,65.10
2017-03-04T12:10:03.801Z,65.20
2017-03-04T12:11:02.054Z,65.20
2017-03-04T12:12:00.353Z,65.20
2017-03-04T12:12:58.200Z,65.70
2017-03-04T12:13:56.275Z,65.20
2017-03-04T12:14:54.619Z,65.10
2017-03-04T12:15:52.562Z,65.00
2017-03-04T12:16:51.028Z,65.30
2017-03-04T12:17:48.863Z,65.30
2017-03-04T12:18:46.951Z,65.20
2017-03-04T12:19:45.348Z,65.20
2017-03-04T12:20:45.106Z,65.20
2017-03-04T12:21:44.611Z,68.90
2017-03-04T12:22:43.685Z,68.90
2017-03-04T12:23:43.145Z,61.80
2017-03-04T12:24:42.334Z,61.80
2017-03-04T12:25:41.527Z,62.10
2017-03-04T12:26:40.674Z,62.70
2017-03-04T12:27:39.888Z,62.50
2017-03-04T12:28:38.669Z,62.80
2017-03-04T12:29:38.038Z,62.70
2017-03-04T12:30:37.574Z,62.80
2017-03-04T12:31:41.407Z,62.80
2017-03-04T12:32:41.035Z,62.70
2017-03-04T12:33:39.893Z,62.40
2017-03-04T12:34:38.724Z,62.30
2017-03-04T12:35:40.615Z,62.30
2017-03-04T12:36:39.472Z,62.30
2017-03-04T12:37:38.522Z,62.20
2017-03-04T12:38:38.226Z,62.10
2017-03-04T12:39:37.635Z,62.00